sensor_id;sensor_type;location;lat;lon;timestamp;pressure;altitude;pressure_sealevel;temperature;humidity
10852;BME280;5479;52.046;6.314;2023-10-09T00:01:43;101879.88;;;13.49;100.00
10852;BME280;5479;52.046;6.314;2023-10-09T00:04:10;101875.97;;;13.56;100.00
10852;BME280;5479;52.046;6.314;2023-10-09T00:06:43;101871.09;;;13.64;100.00
10852;BME280;5479;52.046;6.314;2023-10-09T00:09:10;101871.53;;;13.72;100.00
10852;BME280;5479;52.046;6.314;2023-10-09T00:11:45;101871.00;;;13.81;100.00
10852;BME280;5479;52.046;6.314;2023-10-09T00:14:15;101880.44;;;13.86;100.00
10852;BME280;5479;52.046;6.314;2023-10-09T00:16:45;101883.69;;;13.91;100.00
10852;BME280;5479;52.046;6.314;2023-10-09T00:19:15;101886.78;;;14.00;100.00
10852;BME280;5479;52.046;6.314;2023-10-09T00:21:49;101876.66;;;14.06;100.00
10852;BME280;5479;52.046;6.314;2023-10-09T00:24:18;101875.81;;;14.06;100.00
10852;BME280;5479;52.046;6.314;2023-10-09T00:26:50;101883.03;;;14.04;100.00
10852;BME280;5479;52.046;6.314;2023-10-09T00:29:22;101875.22;;;14.01;100.00
10852;BME280;5479;52.046;6.314;2023-10-09T00:31:50;101885.94;;;13.99;100.00
10852;BME280;5479;52.046;6.314;2023-10-09T00:34:22;101885.94;;;13.99;100.00
10852;BME280;5479;52.046;6.314;2023-10-09T00:36:55;101889.56;;;13.98;100.00
10852;BME280;5479;52.046;6.314;2023-10-09T00:39:30;101891.63;;;13.93;100.00
10852;BME280;5479;52.046;6.314;2023-10-09T00:42:10;101886.28;;;13.93;100.00
10852;BME280;5479;52.046;6.314;2023-10-09T00:44:48;101885.25;;;13.96;100.00
10852;BME280;5479;52.046;6.314;2023-10-09T00:47:17;101894.19;;;13.95;100.00
10852;BME280;5479;52.046;6.314;2023-10-09T00:49:50;101886.28;;;13.93;100.00
10852;BME280;5479;52.046;6.314;2023-10-09T00:52:22;101872.19;;;13.91;100.00
10852;BME280;5479;52.046;6.314;2023-10-09T00:55:04;101870.50;;;13.90;100.00
10852;BME280;5479;52.046;6.314;2023-10-09T00:57:42;101864.13;;;13.93;100.00
10852;BME280;5479;52.046;6.314;2023-10-09T01:00:17;101859.50;;;13.96;100.00
10852;BME280;5479;52.046;6.314;2023-10-09T01:02:59;101861.78;;;14.02;100.00
10852;BME280;5479;52.046;6.314;2023-10-09T01:05:46;101859.72;;;14.07;100.00
10852;BME280;5479;52.046;6.314;2023-10-09T01:08:21;101858.44;;;14.14;100.00
10852;BME280;5479;52.046;6.314;2023-10-09T01:10:56;101859.72;;;14.23;100.00
10852;BME280;5479;52.046;6.314;2023-10-09T01:13:37;101863.06;;;14.26;100.00
10852;BME280;5479;52.046;6.314;2023-10-09T01:16:20;101855.50;;;14.34;100.00
10852;BME280;5479;52.046;6.314;2023-10-09T01:18:50;101855.16;;;14.40;100.00
10852;BME280;5479;52.046;6.314;2023-10-09T01:21:19;101853.25;;;14.42;100.00
10852;BME280;5479;52.046;6.314;2023-10-09T01:23:53;101844.31;;;14.43;100.00
10852;BME280;5479;52.046;6.314;2023-10-09T01:26:31;101848.72;;;14.44;100.00
10852;BME280;5479;52.046;6.314;2023-10-09T01:29:05;101838.66;;;14.49;100.00
10852;BME280;5479;52.046;6.314;2023-10-09T01:31:37;101842.75;;;14.55;100.00
10852;BME280;5479;52.046;6.314;2023-10-09T01:34:10;101838.75;;;14.62;100.00
10852;BME280;5479;52.046;6.314;2023-10-09T01:36:40;101833.25;;;14.65;100.00
10852;BME280;5479;52.046;6.314;2023-10-09T01:39:09;101833.31;;;14.64;100.00
10852;BME280;5479;52.046;6.314;2023-10-09T01:41:49;101832.28;;;14.66;100.00
10852;BME280;5479;52.046;6.314;2023-10-09T01:44:25;101841.66;;;14.73;100.00
10852;BME280;5479;52.046;6.314;2023-10-09T01:47:01;101840.59;;;14.76;100.00
10852;BME280;5479;52.046;6.314;2023-10-09T01:49:33;101844.03;;;14.78;100.00
10852;BME280;5479;52.046;6.314;2023-10-09T01:52:04;101837.75;;;14.79;100.00
10852;BME280;5479;52.046;6.314;2023-10-09T01:54:37;101832.25;;;14.82;100.00
10852;BME280;5479;52.046;6.314;2023-10-09T01:57:06;101822.34;;;14.84;100.00
10852;BME280;5479;52.046;6.314;2023-10-09T01:59:37;101824.72;;;14.88;100.00
10852;BME280;5479;52.046;6.314;2023-10-09T02:02:11;101827.94;;;14.93;100.00
10852;BME280;5479;52.046;6.314;2023-10-09T02:05:00;101823.66;;;14.91;100.00
10852;BME280;5479;52.046;6.314;2023-10-09T02:07:37;101821.75;;;14.93;100.00
10852;BME280;5479;52.046;6.314;2023-10-09T02:10:13;101823.47;;;14.94;100.00
10852;BME280;5479;52.046;6.314;2023-10-09T02:12:52;101812.06;;;14.92;100.00
10852;BME280;5479;52.046;6.314;2023-10-09T02:15:26;101798.78;;;14.90;100.00
10852;BME280;5479;52.046;6.314;2023-10-09T02:18:19;101804.06;;;14.92;100.00
10852;BME280;5479;52.046;6.314;2023-10-09T02:21:04;101793.19;;;14.95;100.00
10852;BME280;5479;52.046;6.314;2023-10-09T02:23:55;101799.09;;;15.00;100.00
10852;BME280;5479;52.046;6.314;2023-10-09T02:26:25;101790.06;;;15.02;100.00
10852;BME280;5479;52.046;6.314;2023-10-09T02:28:58;101798.81;;;15.04;100.00
10852;BME280;5479;52.046;6.314;2023-10-09T02:31:30;101794.34;;;15.05;100.00
10852;BME280;5479;52.046;6.314;2023-10-09T02:34:07;101778.53;;;15.02;100.00
10852;BME280;5479;52.046;6.314;2023-10-09T02:36:37;101787.28;;;15.04;100.00
10852;BME280;5479;52.046;6.314;2023-10-09T02:39:16;101781.88;;;15.05;100.00
10852;BME280;5479;52.046;6.314;2023-10-09T02:41:51;101778.72;;;15.13;100.00
10852;BME280;5479;52.046;6.314;2023-10-09T02:44:21;101769.16;;;15.09;100.00
10852;BME280;5479;52.046;6.314;2023-10-09T02:46:52;101771.66;;;15.12;100.00
10852;BME280;5479;52.046;6.314;2023-10-09T02:49:24;101770.72;;;15.13;100.00
10852;BME280;5479;52.046;6.314;2023-10-09T02:51:52;101756.63;;;15.11;100.00
10852;BME280;5479;52.046;6.314;2023-10-09T02:54:20;101762.16;;;15.08;100.00
10852;BME280;5479;52.046;6.314;2023-10-09T02:57:03;101767.28;;;15.11;100.00
10852;BME280;5479;52.046;6.314;2023-10-09T02:59:34;101755.56;;;15.14;100.00
10852;BME280;5479;52.046;6.314;2023-10-09T03:02:03;101753.84;;;15.13;100.00
10852;BME280;5479;52.046;6.314;2023-10-09T03:04:31;101747.63;;;15.12;100.00
10852;BME280;5479;52.046;6.314;2023-10-09T03:07:00;101750.88;;;15.17;100.00
10852;BME280;5479;52.046;6.314;2023-10-09T03:09:28;101749.00;;;15.19;100.00
10852;BME280;5479;52.046;6.314;2023-10-09T03:11:59;101761.34;;;15.20;100.00
10852;BME280;5479;52.046;6.314;2023-10-09T03:14:31;101747.38;;;15.17;100.00
10852;BME280;5479;52.046;6.314;2023-10-09T03:17:01;101740.13;;;15.19;100.00
10852;BME280;5479;52.046;6.314;2023-10-09T03:19:31;101745.91;;;15.25;100.00
10852;BME280;5479;52.046;6.314;2023-10-09T03:22:05;101727.22;;;15.25;100.00
10852;BME280;5479;52.046;6.314;2023-10-09T03:24:36;101747.81;;;15.23;100.00
10852;BME280;5479;52.046;6.314;2023-10-09T03:27:04;101754.69;;;15.27;100.00
10852;BME280;5479;52.046;6.314;2023-10-09T03:29:33;101758.19;;;15.28;100.00
10852;BME280;5479;52.046;6.314;2023-10-09T03:32:03;101747.50;;;15.28;100.00
10852;BME280;5479;52.046;6.314;2023-10-09T03:34:32;101735.59;;;15.33;100.00
10852;BME280;5479;52.046;6.314;2023-10-09T03:37:00;101736.28;;;15.37;100.00
10852;BME280;5479;52.046;6.314;2023-10-09T03:39:32;101736.38;;;15.35;100.00
10852;BME280;5479;52.046;6.314;2023-10-09T03:42:08;101731.59;;;15.40;100.00
10852;BME280;5479;52.046;6.314;2023-10-09T03:44:47;101745.88;;;15.39;100.00
10852;BME280;5479;52.046;6.314;2023-10-09T03:47:18;101745.03;;;15.39;100.00
10852;BME280;5479;52.046;6.314;2023-10-09T03:49:50;101740.84;;;15.35;100.00
10852;BME280;5479;52.046;6.314;2023-10-09T03:52:20;101736.38;;;15.35;100.00
10852;BME280;5479;52.046;6.314;2023-10-09T03:54:51;101740.75;;;15.36;100.00
10852;BME280;5479;52.046;6.314;2023-10-09T03:57:19;101741.31;;;15.41;100.00
10852;BME280;5479;52.046;6.314;2023-10-09T03:59:50;101733.28;;;15.41;100.00
10852;BME280;5479;52.046;6.314;2023-10-09T04:02:21;101731.59;;;15.40;100.00
10852;BME280;5479;52.046;6.314;2023-10-09T04:04:49;101717.59;;;15.51;100.00
10852;BME280;5479;52.046;6.314;2023-10-09T04:07:19;101720.34;;;15.49;100.00
10852;BME280;5479;52.046;6.314;2023-10-09T04:09:48;101717.78;;;15.48;100.00
10852;BME280;5479;52.046;6.314;2023-10-09T04:12:35;101721.88;;;15.53;100.00
10852;BME280;5479;52.046;6.314;2023-10-09T04:15:08;101733.19;;;15.57;100.00
10852;BME280;5479;52.046;6.314;2023-10-09T04:17:41;101753.41;;;15.61;100.00
10852;BME280;5479;52.046;6.314;2023-10-09T04:20:10;101755.22;;;15.60;100.00
10852;BME280;5479;52.046;6.314;2023-10-09T04:22:57;101760.47;;;15.62;100.00
10852;BME280;5479;52.046;6.314;2023-10-09T04:25:32;101755.41;;;15.57;100.00
10852;BME280;5479;52.046;6.314;2023-10-09T04:28:09;101762.00;;;15.52;100.00
10852;BME280;5479;52.046;6.314;2023-10-09T04:30:46;101752.28;;;15.51;100.00
10852;BME280;5479;52.046;6.314;2023-10-09T04:33:20;101752.19;;;15.52;100.00
10852;BME280;5479;52.046;6.314;2023-10-09T04:36:08;101753.72;;;15.56;100.00
10852;BME280;5479;52.046;6.314;2023-10-09T04:38:43;101747.31;;;15.59;100.00
10852;BME280;5479;52.046;6.314;2023-10-09T04:41:22;101756.75;;;15.64;100.00
10852;BME280;5479;52.046;6.314;2023-10-09T04:43:55;101761.03;;;15.67;100.00
10852;BME280;5479;52.046;6.314;2023-10-09T04:46:41;101749.47;;;15.66;100.00
10852;BME280;5479;52.046;6.314;2023-10-09T04:49:10;101753.75;;;15.69;100.00
10852;BME280;5479;52.046;6.314;2023-10-09T04:51:54;101752.91;;;15.68;100.00
10852;BME280;5479;52.046;6.314;2023-10-09T04:54:32;101749.28;;;15.69;100.00
10852;BME280;5479;52.046;6.314;2023-10-09T04:57:27;101756.97;;;15.74;100.00
10852;BME280;5479;52.046;6.314;2023-10-09T04:59:56;101756.13;;;15.74;100.00
10852;BME280;5479;52.046;6.314;2023-10-09T05:02:26;101757.34;;;15.82;100.00
10852;BME280;5479;52.046;6.314;2023-10-09T05:05:03;101762.13;;;15.77;100.00
10852;BME280;5479;52.046;6.314;2023-10-09T05:07:43;101761.47;;;15.74;100.00
10852;BME280;5479;52.046;6.314;2023-10-09T05:10:21;101772.25;;;15.72;100.00
10852;BME280;5479;52.046;6.314;2023-10-09T05:12:52;101758.91;;;15.72;100.00
10852;BME280;5479;52.046;6.314;2023-10-09T05:15:24;101768.72;;;15.72;100.00
10852;BME280;5479;52.046;6.314;2023-10-09T05:17:56;101766.72;;;15.75;100.00
10852;BME280;5479;52.046;6.314;2023-10-09T05:20:24;101766.81;;;15.74;100.00
10852;BME280;5479;52.046;6.314;2023-10-09T05:23:10;101764.91;;;15.76;100.00
10852;BME280;5479;52.046;6.314;2023-10-09T05:25:55;101760.19;;;15.79;100.00
10852;BME280;5479;52.046;6.314;2023-10-09T05:28:25;101752.09;;;15.81;100.00
10852;BME280;5479;52.046;6.314;2023-10-09T05:30:57;101751.25;;;15.80;100.00
10852;BME280;5479;52.046;6.314;2023-10-09T05:33:37;101752.09;;;15.81;100.00
10852;BME280;5479;52.046;6.314;2023-10-09T05:36:06;101764.09;;;15.88;100.00
10852;BME280;5479;52.046;6.314;2023-10-09T05:38:57;101762.00;;;15.79;100.00
10852;BME280;5479;52.046;6.314;2023-10-09T05:41:43;101773.91;;;15.87;100.00
10852;BME280;5479;52.046;6.314;2023-10-09T05:44:19;101772.09;;;15.88;100.00
10852;BME280;5479;52.046;6.314;2023-10-09T05:47:05;101779.44;;;15.84;100.00
10852;BME280;5479;52.046;6.314;2023-10-09T05:50:04;101791.94;;;15.84;100.00
10852;BME280;5479;52.046;6.314;2023-10-09T05:52:50;101801.47;;;15.88;100.00
10852;BME280;5479;52.046;6.314;2023-10-09T05:55:31;101811.41;;;15.86;100.00
10852;BME280;5479;52.046;6.314;2023-10-09T05:58:17;101812.47;;;15.83;100.00
10852;BME280;5479;52.046;6.314;2023-10-09T06:01:01;101806.47;;;15.80;100.00
10852;BME280;5479;52.046;6.314;2023-10-09T06:03:47;101801.00;;;15.81;100.00
10852;BME280;5479;52.046;6.314;2023-10-09T06:06:23;101813.53;;;15.81;100.00
10852;BME280;5479;52.046;6.314;2023-10-09T06:09:01;101803.81;;;15.80;100.00
10852;BME280;5479;52.046;6.314;2023-10-09T06:11:55;101812.19;;;15.74;100.00
10852;BME280;5479;52.046;6.314;2023-10-09T06:14:23;101811.44;;;15.72;100.00
10852;BME280;5479;52.046;6.314;2023-10-09T06:17:14;101812.97;;;15.76;100.00
10852;BME280;5479;52.046;6.314;2023-10-09T06:19:50;101805.91;;;15.75;100.00
10852;BME280;5479;52.046;6.314;2023-10-09T06:22:27;101817.34;;;15.77;100.00
10852;BME280;5479;52.046;6.314;2023-10-09T06:25:12;101810.88;;;15.81;100.00
10852;BME280;5479;52.046;6.314;2023-10-09T06:27:44;101814.28;;;15.83;100.00
10852;BME280;5479;52.046;6.314;2023-10-09T06:30:24;101821.13;;;15.87;100.00
10852;BME280;5479;52.046;6.314;2023-10-09T06:32:53;101819.00;;;15.92;100.00
10852;BME280;5479;52.046;6.314;2023-10-09T06:35:36;101829.69;;;15.92;100.00
10852;BME280;5479;52.046;6.314;2023-10-09T06:38:14;101822.47;;;15.94;100.00
10852;BME280;5479;52.046;6.314;2023-10-09T06:40:51;101798.56;;;16.05;100.00
10852;BME280;5479;52.046;6.314;2023-10-09T06:43:50;101769.59;;;16.11;100.00
10852;BME280;5479;52.046;6.314;2023-10-09T06:46:19;101789.78;;;16.03;100.00
10852;BME280;5479;52.046;6.314;2023-10-09T06:49:10;101826.34;;;16.02;100.00
10852;BME280;5479;52.046;6.314;2023-10-09T06:51:57;101798.56;;;16.05;100.00
10852;BME280;5479;52.046;6.314;2023-10-09T06:54:44;101806.47;;;16.06;100.00
10852;BME280;5479;52.046;6.314;2023-10-09T06:57:17;101809.25;;;16.05;100.00
10852;BME280;5479;52.046;6.314;2023-10-09T07:00:08;101798.81;;;16.14;100.00
10852;BME280;5479;52.046;6.314;2023-10-09T07:02:55;101793.06;;;16.20;100.00
10852;BME280;5479;52.046;6.314;2023-10-09T07:05:24;101790.06;;;16.25;100.00
10852;BME280;5479;52.046;6.314;2023-10-09T07:07:58;101789.00;;;16.27;100.00
10852;BME280;5479;52.046;6.314;2023-10-09T07:10:46;101786.66;;;16.23;100.00
10852;BME280;5479;52.046;6.314;2023-10-09T07:13:29;101774.78;;;16.27;100.00
10852;BME280;5479;52.046;6.314;2023-10-09T07:15:56;101784.13;;;16.34;100.00
10852;BME280;5479;52.046;6.314;2023-10-09T07:18:38;101812.34;;;16.38;100.00
10852;BME280;5479;52.046;6.314;2023-10-09T07:21:16;101818.34;;;16.42;100.00
10852;BME280;5479;52.046;6.314;2023-10-09T07:23:56;101818.22;;;16.43;100.00
10852;BME280;5479;52.046;6.314;2023-10-09T07:26:41;101821.56;;;16.47;100.00
10852;BME280;5479;52.046;6.314;2023-10-09T07:29:19;101825.03;;;16.61;100.00
10852;BME280;5479;52.046;6.314;2023-10-09T07:31:52;101821.81;;;16.56;100.00
10852;BME280;5479;52.046;6.314;2023-10-09T07:34:24;101817.44;;;16.55;100.00
10852;BME280;5479;52.046;6.314;2023-10-09T07:36:57;101814.31;;;16.61;100.00
10852;BME280;5479;52.046;6.314;2023-10-09T07:39:31;101818.41;;;16.67;100.00
10852;BME280;5479;52.046;6.314;2023-10-09T07:42:05;101806.44;;;16.72;100.00
10852;BME280;5479;52.046;6.314;2023-10-09T07:45:00;101813.38;;;16.75;100.00
10852;BME280;5479;52.046;6.314;2023-10-09T07:47:39;101811.38;;;16.78;100.00
10852;BME280;5479;52.046;6.314;2023-10-09T07:50:21;101817.44;;;16.80;100.00
10852;BME280;5479;52.046;6.314;2023-10-09T07:52:49;101822.81;;;16.80;100.00
10852;BME280;5479;52.046;6.314;2023-10-09T07:55:18;101812.97;;;16.94;100.00
10852;BME280;5479;52.046;6.314;2023-10-09T07:58:07;101826.34;;;16.94;100.00
10852;BME280;5479;52.046;6.314;2023-10-09T08:00:38;101827.66;;;17.01;100.00
10852;BME280;5479;52.046;6.314;2023-10-09T08:03:33;101836.00;;;17.09;100.00
10852;BME280;5479;52.046;6.314;2023-10-09T08:06:02;101834.03;;;17.23;100.00
10852;BME280;5479;52.046;6.314;2023-10-09T08:08:56;101818.00;;;17.36;100.00
10852;BME280;5479;52.046;6.314;2023-10-09T08:11:38;101805.22;;;17.39;100.00
10852;BME280;5479;52.046;6.314;2023-10-09T08:14:28;101786.69;;;17.49;100.00
10852;BME280;5479;52.046;6.314;2023-10-09T08:17:10;101786.66;;;17.62;100.00
10852;BME280;5479;52.046;6.314;2023-10-09T08:19:48;101778.56;;;17.74;100.00
10852;BME280;5479;52.046;6.314;2023-10-09T08:22:24;101778.88;;;17.82;100.00
10852;BME280;5479;52.046;6.314;2023-10-09T08:25:16;101772.34;;;17.86;100.00
10852;BME280;5479;52.046;6.314;2023-10-09T08:27:59;101765.53;;;17.93;100.00
10852;BME280;5479;52.046;6.314;2023-10-09T08:30:43;101761.41;;;18.00;100.00
10852;BME280;5479;52.046;6.314;2023-10-09T08:33:17;101774.78;;;18.13;100.00
10852;BME280;5479;52.046;6.314;2023-10-09T08:36:10;101775.91;;;18.22;100.00
10852;BME280;5479;52.046;6.314;2023-10-09T08:38:41;101772.75;;;18.28;100.00
10852;BME280;5479;52.046;6.314;2023-10-09T08:41:10;101759.13;;;18.42;100.00
10852;BME280;5479;52.046;6.314;2023-10-09T08:43:48;101763.28;;;18.46;100.00
10852;BME280;5479;52.046;6.314;2023-10-09T08:46:24;101761.16;;;18.51;100.00
10852;BME280;5479;52.046;6.314;2023-10-09T08:48:54;101769.69;;;18.56;100.00
10852;BME280;5479;52.046;6.314;2023-10-09T08:51:24;101788.72;;;18.53;100.00
10852;BME280;5479;52.046;6.314;2023-10-09T08:53:52;101806.88;;;18.60;100.00
10852;BME280;5479;52.046;6.314;2023-10-09T08:56:21;101821.63;;;18.55;100.00
10852;BME280;5479;52.046;6.314;2023-10-09T08:58:54;101814.25;;;18.46;100.00
10852;BME280;5479;52.046;6.314;2023-10-09T09:01:23;101822.59;;;18.54;100.00
10852;BME280;5479;52.046;6.314;2023-10-09T09:03:53;101831.72;;;18.51;100.00
10852;BME280;5479;52.046;6.314;2023-10-09T09:06:22;101831.03;;;18.60;100.00
10852;BME280;5479;52.046;6.314;2023-10-09T09:08:51;101829.25;;;18.72;100.00
10852;BME280;5479;52.046;6.314;2023-10-09T09:11:26;101833.41;;;18.87;100.00
10852;BME280;5479;52.046;6.314;2023-10-09T09:14:01;101832.31;;;18.90;100.00
10852;BME280;5479;52.046;6.314;2023-10-09T09:16:33;101842.09;;;18.91;100.00
10852;BME280;5479;52.046;6.314;2023-10-09T09:19:04;101844.31;;;19.08;100.00
10852;BME280;5479;52.046;6.314;2023-10-09T09:21:49;101845.56;;;19.26;100.00
10852;BME280;5479;52.046;6.314;2023-10-09T09:24:21;101850.84;;;19.39;100.00
10852;BME280;5479;52.046;6.314;2023-10-09T09:27:02;101842.03;;;19.48;100.00
10852;BME280;5479;52.046;6.314;2023-10-09T09:29:41;101849.75;;;19.63;100.00
10852;BME280;5479;52.046;6.314;2023-10-09T09:32:28;101851.81;;;19.49;100.00
10852;BME280;5479;52.046;6.314;2023-10-09T09:35:02;101851.28;;;19.77;100.00
10852;BME280;5479;52.046;6.314;2023-10-09T09:37:32;101858.88;;;19.72;100.00
10852;BME280;5479;52.046;6.314;2023-10-09T09:40:17;101859.00;;;19.81;100.00
10852;BME280;5479;52.046;6.314;2023-10-09T09:42:57;101862.38;;;19.95;100.00
10852;BME280;5479;52.046;6.314;2023-10-09T09:45:32;101862.69;;;20.12;100.00
10852;BME280;5479;52.046;6.314;2023-10-09T09:48:03;101855.78;;;19.99;100.00
10852;BME280;5479;52.046;6.314;2023-10-09T09:50:32;101852.16;;;19.77;100.00
10852;BME280;5479;52.046;6.314;2023-10-09T09:53:03;101859.59;;;19.85;100.00
10852;BME280;5479;52.046;6.314;2023-10-09T09:55:38;101858.91;;;20.15;100.00
10852;BME280;5479;52.046;6.314;2023-10-09T09:58:14;101849.09;;;20.36;100.00
10852;BME280;5479;52.046;6.314;2023-10-09T10:00:47;101853.34;;;20.38;100.00
10852;BME280;5479;52.046;6.314;2023-10-09T10:03:24;101853.25;;;20.61;100.00
10852;BME280;5479;52.046;6.314;2023-10-09T10:05:54;101846.28;;;20.79;100.00
10852;BME280;5479;52.046;6.314;2023-10-09T10:08:24;101848.63;;;20.83;100.00
10852;BME280;5479;52.046;6.314;2023-10-09T10:10:59;101844.09;;;20.84;100.00
10852;BME280;5479;52.046;6.314;2023-10-09T10:13:55;101846.00;;;20.72;100.00
10852;BME280;5479;52.046;6.314;2023-10-09T10:16:31;101848.38;;;20.86;100.00
10852;BME280;5479;52.046;6.314;2023-10-09T10:19:04;101854.56;;;20.87;100.00
10852;BME280;5479;52.046;6.314;2023-10-09T10:21:48;101859.25;;;20.64;100.00
10852;BME280;5479;52.046;6.314;2023-10-09T10:24:41;101855.84;;;20.30;100.00
10852;BME280;5479;52.046;6.314;2023-10-09T10:27:22;101864.50;;;20.23;100.00
10852;BME280;5479;52.046;6.314;2023-10-09T10:30:28;101859.53;;;20.07;100.00
10852;BME280;5479;52.046;6.314;2023-10-09T10:33:03;101865.69;;;19.98;100.00
10852;BME280;5479;52.046;6.314;2023-10-09T10:35:40;101870.28;;;20.07;100.00
10852;BME280;5479;52.046;6.314;2023-10-09T10:38:25;101869.56;;;20.16;100.00
10852;BME280;5479;52.046;6.314;2023-10-09T10:41:13;101871.38;;;20.27;100.00
10852;BME280;5479;52.046;6.314;2023-10-09T10:43:43;101864.91;;;20.18;100.00
10852;BME280;5479;52.046;6.314;2023-10-09T10:46:22;101864.50;;;20.23;100.00
10852;BME280;5479;52.046;6.314;2023-10-09T10:49:05;101857.53;;;20.20;100.00
10852;BME280;5479;52.046;6.314;2023-10-09T10:51:49;101859.97;;;20.34;100.00
10852;BME280;5479;52.046;6.314;2023-10-09T10:54:28;101861.59;;;20.58;100.00
10852;BME280;5479;52.046;6.314;2023-10-09T10:57:18;101864.75;;;20.63;100.00
10852;BME280;5479;52.046;6.314;2023-10-09T10:59:56;101864.78;;;20.83;100.00
10852;BME280;5479;52.046;6.314;2023-10-09T11:02:43;101867.69;;;21.12;100.00
10852;BME280;5479;52.046;6.314;2023-10-09T11:05:14;101860.56;;;21.32;100.00
10852;BME280;5479;52.046;6.314;2023-10-09T11:07:58;101861.91;;;21.47;100.00
10852;BME280;5479;52.046;6.314;2023-10-09T11:10:27;101858.16;;;21.69;100.00
10852;BME280;5479;52.046;6.314;2023-10-09T11:12:58;101851.88;;;21.58;100.00
10852;BME280;5479;52.046;6.314;2023-10-09T11:15:56;101857.03;;;21.81;100.00
10852;BME280;5479;52.046;6.314;2023-10-09T11:18:41;101864.19;;;21.91;100.00
10852;BME280;5479;52.046;6.314;2023-10-09T11:21:14;101849.22;;;22.27;100.00
10852;BME280;5479;52.046;6.314;2023-10-09T11:24:00;101841.97;;;22.28;100.00
10852;BME280;5479;52.046;6.314;2023-10-09T11:26:43;101842.28;;;22.72;100.00
10852;BME280;5479;52.046;6.314;2023-10-09T11:29:20;101840.44;;;22.73;100.00
10852;BME280;5479;52.046;6.314;2023-10-09T11:32:01;101836.59;;;22.75;100.00
10852;BME280;5479;52.046;6.314;2023-10-09T11:34:31;101846.09;;;22.79;100.00
10852;BME280;5479;52.046;6.314;2023-10-09T11:37:02;101841.84;;;22.39;100.00
10852;BME280;5479;52.046;6.314;2023-10-09T11:39:32;101842.25;;;22.34;100.00
10852;BME280;5479;52.046;6.314;2023-10-09T11:42:14;101845.53;;;22.66;100.00
10852;BME280;5479;52.046;6.314;2023-10-09T11:45:03;101840.00;;;22.77;100.00
10852;BME280;5479;52.046;6.314;2023-10-09T11:47:46;101839.16;;;22.67;100.00
10852;BME280;5479;52.046;6.314;2023-10-09T11:50:39;101853.47;;;22.58;100.00
10852;BME280;5479;52.046;6.314;2023-10-09T11:53:10;101858.03;;;22.58;100.00
10852;BME280;5479;52.046;6.314;2023-10-09T11:55:48;101860.16;;;22.35;100.00
10852;BME280;5479;52.046;6.314;2023-10-09T11:58:16;101861.69;;;22.09;100.00
10852;BME280;5479;52.046;6.314;2023-10-09T12:00:52;101867.03;;;21.90;100.00
10852;BME280;5479;52.046;6.314;2023-10-09T12:03:26;101845.34;;;22.01;100.00
10852;BME280;5479;52.046;6.314;2023-10-09T12:05:57;101849.22;;;22.17;100.00
10852;BME280;5479;52.046;6.314;2023-10-09T12:08:31;101857.97;;;21.91;100.00
10852;BME280;5479;52.046;6.314;2023-10-09T12:11:01;101858.84;;;22.01;100.00
10852;BME280;5479;52.046;6.314;2023-10-09T12:13:30;101859.31;;;21.76;100.00
10852;BME280;5479;52.046;6.314;2023-10-09T12:15:59;101864.59;;;21.47;100.00
10852;BME280;5479;52.046;6.314;2023-10-09T12:18:27;101853.22;;;21.43;100.00
10852;BME280;5479;52.046;6.314;2023-10-09T12:20:55;101857.31;;;21.38;100.00
10852;BME280;5479;52.046;6.314;2023-10-09T12:23:29;101845.22;;;21.32;100.00
10852;BME280;5479;52.046;6.314;2023-10-09T12:26:04;101843.38;;;21.02;100.00
10852;BME280;5479;52.046;6.314;2023-10-09T12:28:32;101841.50;;;21.03;100.00
10852;BME280;5479;52.046;6.314;2023-10-09T12:31:01;101840.47;;;21.15;100.00
10852;BME280;5479;52.046;6.314;2023-10-09T12:33:29;101825.91;;;21.27;100.00
10852;BME280;5479;52.046;6.314;2023-10-09T12:35:58;101829.63;;;21.26;100.00
10852;BME280;5479;52.046;6.314;2023-10-09T12:38:27;101829.00;;;21.13;100.00
10852;BME280;5479;52.046;6.314;2023-10-09T12:41:04;101843.94;;;21.06;100.00
10852;BME280;5479;52.046;6.314;2023-10-09T12:43:44;101828.84;;;21.15;100.00
10852;BME280;5479;52.046;6.314;2023-10-09T12:46:12;101837.69;;;21.05;100.00
10852;BME280;5479;52.046;6.314;2023-10-09T12:48:42;101840.66;;;20.82;100.00
10852;BME280;5479;52.046;6.314;2023-10-09T12:51:13;101844.66;;;20.87;100.00
10852;BME280;5479;52.046;6.314;2023-10-09T12:53:43;101833.38;;;20.73;100.00
10852;BME280;5479;52.046;6.314;2023-10-09T12:56:14;101840.06;;;20.58;100.00
10852;BME280;5479;52.046;6.314;2023-10-09T12:58:44;101840.66;;;20.40;100.00
10852;BME280;5479;52.046;6.314;2023-10-09T13:01:19;101847.66;;;20.53;100.00
10852;BME280;5479;52.046;6.314;2023-10-09T13:03:47;101838.28;;;20.47;100.00
10852;BME280;5479;52.046;6.314;2023-10-09T13:06:15;101837.81;;;20.42;100.00
10852;BME280;5479;52.046;6.314;2023-10-09T13:08:57;101846.28;;;20.37;100.00
10852;BME280;5479;52.046;6.314;2023-10-09T13:11:27;101848.50;;;20.32;100.00
10852;BME280;5479;52.046;6.314;2023-10-09T13:13:55;101856.91;;;20.39;100.00
10852;BME280;5479;52.046;6.314;2023-10-09T13:16:38;101851.41;;;20.40;100.00
10852;BME280;5479;52.046;6.314;2023-10-09T13:19:07;101847.59;;;20.43;100.00
10852;BME280;5479;52.046;6.314;2023-10-09T13:21:36;101855.94;;;20.40;100.00
10852;BME280;5479;52.046;6.314;2023-10-09T13:24:06;101859.84;;;20.36;100.00
10852;BME280;5479;52.046;6.314;2023-10-09T13:26:41;101856.81;;;20.18;100.00
10852;BME280;5479;52.046;6.314;2023-10-09T13:29:12;101873.97;;;20.06;100.00
10852;BME280;5479;52.046;6.314;2023-10-09T13:31:40;101862.69;;;20.12;100.00
10852;BME280;5479;52.046;6.314;2023-10-09T13:34:13;101853.41;;;20.16;100.00
10852;BME280;5479;52.046;6.314;2023-10-09T13:36:44;101866.03;;;20.05;100.00